sensor_id;sensor_type;location;lat;lon;timestamp;pressure;altitude;pressure_sealevel;temperature;humidity
85524;BME280;75932;48.616;9.270;2024-02-21T00:01:26;99483.50;;;3.18;88.64
85524;BME280;75932;48.616;9.270;2024-02-21T00:03:51;99484.88;;;3.20;88.59
85524;BME280;75932;48.616;9.270;2024-02-21T00:06:16;99481.25;;;3.25;88.38
85524;BME280;75932;48.616;9.270;2024-02-21T00:08:42;99473.78;;;3.31;89.12
85524;BME280;75932;48.616;9.270;2024-02-21T00:11:07;99479.91;;;3.22;89.35
85524;BME280;75932;48.616;9.270;2024-02-21T00:13:32;99413.44;;;2.81;89.85
85524;BME280;75932;48.616;9.270;2024-02-21T00:16:00;99480.97;;;3.26;89.15
85524;BME280;75932;48.616;9.270;2024-02-21T00:18:26;99479.03;;;3.27;89.09
85524;BME280;75932;48.616;9.270;2024-02-21T00:20:51;99476.03;;;3.23;89.08
85524;BME280;75932;48.616;9.270;2024-02-21T00:23:16;99477.38;;;3.26;89.08
85524;BME280;75932;48.616;9.270;2024-02-21T00:25:42;99476.56;;;3.25;89.24
85524;BME280;75932;48.616;9.270;2024-02-21T00:28:07;99477.91;;;3.28;89.38
85524;BME280;75932;48.616;9.270;2024-02-21T00:30:32;99468.59;;;3.24;89.87
85524;BME280;75932;48.616;9.270;2024-02-21T00:32:57;99465.22;;;3.32;89.88
85524;BME280;75932;48.616;9.270;2024-02-21T00:35:23;99456.94;;;3.37;89.41
85524;BME280;75932;48.616;9.270;2024-02-21T00:37:48;99451.47;;;3.32;89.78
85524;BME280;75932;48.616;9.270;2024-02-21T00:40:13;99456.97;;;3.32;89.75
85524;BME280;75932;48.616;9.270;2024-02-21T00:42:45;99446.50;;;3.34;88.83
85524;BME280;75932;48.616;9.270;2024-02-21T00:45:10;99438.31;;;3.29;89.42
85524;BME280;75932;48.616;9.270;2024-02-21T00:47:36;99442.47;;;3.26;89.84
85524;BME280;75932;48.616;9.270;2024-02-21T00:50:01;99449.66;;;3.22;89.82
85524;BME280;75932;48.616;9.270;2024-02-21T00:52:26;99449.06;;;3.25;90.46
85524;BME280;75932;48.616;9.270;2024-02-21T00:54:52;99443.63;;;3.20;90.13
85524;BME280;75932;48.616;9.270;2024-02-21T00:57:17;99436.97;;;3.26;90.64
85524;BME280;75932;48.616;9.270;2024-02-21T00:59:42;99442.47;;;3.26;89.69
85524;BME280;75932;48.616;9.270;2024-02-21T01:02:08;99432.75;;;3.34;89.39
85524;BME280;75932;48.616;9.270;2024-02-21T01:04:34;99412.84;;;3.18;89.86
85524;BME280;75932;48.616;9.270;2024-02-21T01:07:00;99430.06;;;3.29;89.97
85524;BME280;75932;48.616;9.270;2024-02-21T01:09:25;99427.31;;;3.29;89.35
85524;BME280;75932;48.616;9.270;2024-02-21T01:11:50;99432.56;;;3.25;89.73
85524;BME280;75932;48.616;9.270;2024-02-21T01:14:16;99420.50;;;3.21;89.94
85524;BME280;75932;48.616;9.270;2024-02-21T01:16:41;99413.41;;;3.15;90.27
85524;BME280;75932;48.616;9.270;2024-02-21T01:19:06;99417.75;;;3.21;89.50
85524;BME280;75932;48.616;9.270;2024-02-21T01:21:32;99419.09;;;3.24;89.97
85524;BME280;75932;48.616;9.270;2024-02-21T01:23:57;99405.59;;;3.27;88.96
85524;BME280;75932;48.616;9.270;2024-02-21T01:26:22;99398.16;;;3.28;89.04
85524;BME280;75932;48.616;9.270;2024-02-21T01:28:48;99394.50;;;3.38;88.72
85524;BME280;75932;48.616;9.270;2024-02-21T01:31:13;99398.06;;;3.38;89.16
85524;BME280;75932;48.616;9.270;2024-02-21T01:33:40;99392.81;;;3.42;88.31
85524;BME280;75932;48.616;9.270;2024-02-21T01:36:06;99389.72;;;3.43;88.50
85524;BME280;75932;48.616;9.270;2024-02-21T01:38:32;99387.81;;;3.44;88.42
85524;BME280;75932;48.616;9.270;2024-02-21T01:40:57;99373.22;;;3.43;87.96
85524;BME280;75932;48.616;9.270;2024-02-21T01:43:23;99367.97;;;3.47;88.46
85524;BME280;75932;48.616;9.270;2024-02-21T01:45:57;99366.56;;;3.50;87.92
85524;BME280;75932;48.616;9.270;2024-02-21T01:48:23;99366.81;;;3.53;88.10
85524;BME280;75932;48.616;9.270;2024-02-21T01:50:49;99353.28;;;3.57;88.64
85524;BME280;75932;48.616;9.270;2024-02-21T01:53:18;99353.81;;;3.59;88.35
85524;BME280;75932;48.616;9.270;2024-02-21T01:55:45;99349.13;;;3.59;88.57
85524;BME280;75932;48.616;9.270;2024-02-21T01:58:12;99340.56;;;3.61;88.47
85524;BME280;75932;48.616;9.270;2024-02-21T02:00:40;99340.78;;;3.64;88.03
85524;BME280;75932;48.616;9.270;2024-02-21T02:03:07;99334.19;;;3.65;87.60
85524;BME280;75932;48.616;9.270;2024-02-21T02:05:35;99335.53;;;3.68;86.94
85524;BME280;75932;48.616;9.270;2024-02-21T02:08:01;99331.97;;;3.67;86.43
85524;BME280;75932;48.616;9.270;2024-02-21T02:10:28;99324.22;;;3.70;85.86
85524;BME280;75932;48.616;9.270;2024-02-21T02:12:56;99318.34;;;3.76;86.59
85524;BME280;75932;48.616;9.270;2024-02-21T02:15:21;99308.75;;;3.74;86.19
85524;BME280;75932;48.616;9.270;2024-02-21T02:17:46;99321.34;;;3.80;86.14
85524;BME280;75932;48.616;9.270;2024-02-21T02:20:12;99304.44;;;3.67;86.21
85524;BME280;75932;48.616;9.270;2024-02-21T02:22:39;99319.41;;;3.80;86.04
85524;BME280;75932;48.616;9.270;2024-02-21T02:25:06;99310.34;;;3.80;85.90
85524;BME280;75932;48.616;9.270;2024-02-21T02:27:31;99302.88;;;3.80;86.29
85524;BME280;75932;48.616;9.270;2024-02-21T02:29:57;99292.41;;;3.82;86.36
85524;BME280;75932;48.616;9.270;2024-02-21T02:32:22;99289.94;;;3.81;85.90
85524;BME280;75932;48.616;9.270;2024-02-21T02:34:47;99275.94;;;3.77;85.59
85524;BME280;75932;48.616;9.270;2024-02-21T02:37:12;99279.72;;;3.81;86.28
85524;BME280;75932;48.616;9.270;2024-02-21T02:39:38;99278.13;;;3.80;86.59
85524;BME280;75932;48.616;9.270;2024-02-21T02:42:03;99276.25;;;3.76;86.47
85524;BME280;75932;48.616;9.270;2024-02-21T02:44:29;99277.31;;;3.80;86.76
85524;BME280;75932;48.616;9.270;2024-02-21T02:46:54;99275.03;;;3.82;86.81
85524;BME280;75932;48.616;9.270;2024-02-21T02:49:19;99272.28;;;3.82;87.22
85524;BME280;75932;48.616;9.270;2024-02-21T02:51:45;99263.75;;;3.83;87.31
85524;BME280;75932;48.616;9.270;2024-02-21T02:54:10;99263.44;;;3.85;86.76
85524;BME280;75932;48.616;9.270;2024-02-21T02:56:36;99260.59;;;3.90;86.65
85524;BME280;75932;48.616;9.270;2024-02-21T02:59:01;99261.97;;;3.93;86.70
85524;BME280;75932;48.616;9.270;2024-02-21T03:01:26;99256.94;;;3.95;85.92
85524;BME280;75932;48.616;9.270;2024-02-21T03:03:52;99249.22;;;3.97;86.36
85524;BME280;75932;48.616;9.270;2024-02-21T03:06:17;99245.78;;;4.05;86.18
85524;BME280;75932;48.616;9.270;2024-02-21T03:08:43;99237.31;;;4.01;85.95
85524;BME280;75932;48.616;9.270;2024-02-21T03:11:08;99243.56;;;4.07;86.17
85524;BME280;75932;48.616;9.270;2024-02-21T03:13:33;99216.91;;;4.02;85.43
85524;BME280;75932;48.616;9.270;2024-02-21T03:15:59;99214.91;;;4.08;85.46
85524;BME280;75932;48.616;9.270;2024-02-21T03:18:24;99207.97;;;4.11;85.01
85524;BME280;75932;48.616;9.270;2024-02-21T03:20:49;99217.56;;;4.13;85.19
85524;BME280;75932;48.616;9.270;2024-02-21T03:23:15;99216.97;;;4.16;86.02
85524;BME280;75932;48.616;9.270;2024-02-21T03:25:40;99216.97;;;4.16;86.25
85524;BME280;75932;48.616;9.270;2024-02-21T03:28:06;99212.00;;;4.18;85.68
85524;BME280;75932;48.616;9.270;2024-02-21T03:30:31;99196.88;;;4.16;85.96
85524;BME280;75932;48.616;9.270;2024-02-21T03:32:56;99196.66;;;4.12;85.88
85524;BME280;75932;48.616;9.270;2024-02-21T03:35:22;99198.91;;;4.10;85.56
85524;BME280;75932;48.616;9.270;2024-02-21T03:37:51;99189.09;;;4.04;86.23
85524;BME280;75932;48.616;9.270;2024-02-21T03:40:16;99192.53;;;3.96;86.51
85524;BME280;75932;48.616;9.270;2024-02-21T03:42:42;99193.72;;;3.89;86.24
85524;BME280;75932;48.616;9.270;2024-02-21T03:45:08;99196.63;;;3.79;87.28
85524;BME280;75932;48.616;9.270;2024-02-21T03:47:33;99197.25;;;3.76;87.04
85524;BME280;75932;48.616;9.270;2024-02-21T03:49:58;99194.25;;;3.73;86.96
85524;BME280;75932;48.616;9.270;2024-02-21T03:52:24;99114.94;;;3.23;87.27
85524;BME280;75932;48.616;9.270;2024-02-21T03:54:50;99182.31;;;3.63;87.61
85524;BME280;75932;48.616;9.270;2024-02-21T03:57:15;99180.75;;;3.57;87.84
85524;BME280;75932;48.616;9.270;2024-02-21T03:59:42;99185.81;;;3.50;88.24
85524;BME280;75932;48.616;9.270;2024-02-21T04:02:10;99196.28;;;3.48;88.26
85524;BME280;75932;48.616;9.270;2024-02-21T04:04:35;99202.66;;;3.43;88.87
85524;BME280;75932;48.616;9.270;2024-02-21T04:07:02;99209.13;;;3.34;88.32
85524;BME280;75932;48.616;9.270;2024-02-21T04:09:32;99190.81;;;3.24;88.62
85524;BME280;75932;48.616;9.270;2024-02-21T04:11:57;99219.25;;;3.38;88.33
85524;BME280;75932;48.616;9.270;2024-02-21T04:14:22;99212.28;;;3.46;87.88
85524;BME280;75932;48.616;9.270;2024-02-21T04:16:48;99174.84;;;3.26;88.26
85524;BME280;75932;48.616;9.270;2024-02-21T04:19:15;99206.25;;;3.44;88.41
85524;BME280;75932;48.616;9.270;2024-02-21T04:21:40;99190.63;;;3.39;88.43
85524;BME280;75932;48.616;9.270;2024-02-21T04:24:06;99173.00;;;3.40;88.29
85524;BME280;75932;48.616;9.270;2024-02-21T04:26:31;99180.59;;;3.48;88.67
85524;BME280;75932;48.616;9.270;2024-02-21T04:28:57;99179.03;;;3.42;88.95
85524;BME280;75932;48.616;9.270;2024-02-21T04:31:22;99169.66;;;3.43;89.11
85524;BME280;75932;48.616;9.270;2024-02-21T04:33:47;99169.44;;;3.40;89.08
85524;BME280;75932;48.616;9.270;2024-02-21T04:36:12;99148.63;;;3.34;89.28
85524;BME280;75932;48.616;9.270;2024-02-21T04:38:38;99143.19;;;3.28;89.71
85524;BME280;75932;48.616;9.270;2024-02-21T04:41:04;99138.28;;;3.25;89.11
85524;BME280;75932;48.616;9.270;2024-02-21T04:43:29;99103.84;;;2.90;89.40
85524;BME280;75932;48.616;9.270;2024-02-21T04:45:54;99151.66;;;3.13;89.76
85524;BME280;75932;48.616;9.270;2024-02-21T04:48:20;99075.44;;;2.57;89.41
85524;BME280;75932;48.616;9.270;2024-02-21T04:50:45;99146.13;;;2.94;90.72
85524;BME280;75932;48.616;9.270;2024-02-21T04:53:11;99136.25;;;2.93;89.86
85524;BME280;75932;48.616;9.270;2024-02-21T04:55:36;99122.13;;;2.81;90.00
85524;BME280;75932;48.616;9.270;2024-02-21T04:58:04;99122.72;;;2.78;90.21
85524;BME280;75932;48.616;9.270;2024-02-21T05:00:29;99123.81;;;2.77;90.44
85524;BME280;75932;48.616;9.270;2024-02-21T05:02:54;99120.34;;;2.71;90.96
85524;BME280;75932;48.616;9.270;2024-02-21T05:05:20;99133.31;;;2.65;90.68
85524;BME280;75932;48.616;9.270;2024-02-21T05:07:45;99125.06;;;2.65;90.21
85524;BME280;75932;48.616;9.270;2024-02-21T05:10:10;99133.38;;;2.60;90.28
85524;BME280;75932;48.616;9.270;2024-02-21T05:12:35;99134.66;;;2.68;90.13
85524;BME280;75932;48.616;9.270;2024-02-21T05:15:01;99136.34;;;2.64;89.66
85524;BME280;75932;48.616;9.270;2024-02-21T05:17:28;99139.63;;;2.66;89.67
85524;BME280;75932;48.616;9.270;2024-02-21T05:19:53;99139.56;;;2.71;90.14
85524;BME280;75932;48.616;9.270;2024-02-21T05:22:18;99148.88;;;2.75;89.21
85524;BME280;75932;48.616;9.270;2024-02-21T05:24:43;99152.25;;;2.67;88.77
85524;BME280;75932;48.616;9.270;2024-02-21T05:27:11;99137.34;;;2.49;89.47
85524;BME280;75932;48.616;9.270;2024-02-21T05:29:36;99149.03;;;2.36;89.70
85524;BME280;75932;48.616;9.270;2024-02-21T05:32:02;99145.22;;;2.32;89.21
85524;BME280;75932;48.616;9.270;2024-02-21T05:34:27;99136.88;;;2.18;89.96
85524;BME280;75932;48.616;9.270;2024-02-21T05:36:53;99137.00;;;2.02;89.88
85524;BME280;75932;48.616;9.270;2024-02-21T05:39:19;99130.22;;;1.95;90.91
85524;BME280;75932;48.616;9.270;2024-02-21T05:41:45;99114.63;;;1.90;91.26
85524;BME280;75932;48.616;9.270;2024-02-21T05:44:10;99123.41;;;1.87;91.05
85524;BME280;75932;48.616;9.270;2024-02-21T05:46:36;99120.47;;;1.83;91.91
85524;BME280;75932;48.616;9.270;2024-02-21T05:49:01;99110.84;;;1.81;92.48
85524;BME280;75932;48.616;9.270;2024-02-21T05:51:26;99118.75;;;1.88;91.45
85524;BME280;75932;48.616;9.270;2024-02-21T05:53:52;99116.31;;;1.86;91.01
85524;BME280;75932;48.616;9.270;2024-02-21T05:56:17;99101.28;;;1.78;91.19
85524;BME280;75932;48.616;9.270;2024-02-21T05:58:43;99107.03;;;1.77;91.06
85524;BME280;75932;48.616;9.270;2024-02-21T06:01:09;99097.19;;;1.76;91.58
85524;BME280;75932;48.616;9.270;2024-02-21T06:03:34;99093.91;;;1.74;91.01
85524;BME280;75932;48.616;9.270;2024-02-21T06:06:01;99067.19;;;1.55;91.86
85524;BME280;75932;48.616;9.270;2024-02-21T06:08:27;99094.97;;;1.78;92.24
85524;BME280;75932;48.616;9.270;2024-02-21T06:10:52;99100.72;;;1.81;92.11
85524;BME280;75932;48.616;9.270;2024-02-21T06:13:28;99031.16;;;1.38;92.42
85524;BME280;75932;48.616;9.270;2024-02-21T06:15:53;99098.19;;;1.85;92.91
85524;BME280;75932;48.616;9.270;2024-02-21T06:18:19;99084.34;;;1.71;92.18
85524;BME280;75932;48.616;9.270;2024-02-21T06:20:45;99063.88;;;1.58;91.80
85524;BME280;75932;48.616;9.270;2024-02-21T06:23:12;99105.69;;;1.79;91.45
85524;BME280;75932;48.616;9.270;2024-02-21T06:25:38;99104.31;;;1.77;90.49
85524;BME280;75932;48.616;9.270;2024-02-21T06:28:04;99098.72;;;1.87;90.97
85524;BME280;75932;48.616;9.270;2024-02-21T06:30:30;99102.81;;;1.90;91.32
85524;BME280;75932;48.616;9.270;2024-02-21T06:32:55;99092.03;;;1.98;90.82
85524;BME280;75932;48.616;9.270;2024-02-21T06:35:21;99085.88;;;2.36;90.71
85524;BME280;75932;48.616;9.270;2024-02-21T06:37:47;99092.50;;;2.78;88.11
85524;BME280;75932;48.616;9.270;2024-02-21T06:40:16;99091.38;;;3.68;83.51
85524;BME280;75932;48.616;9.270;2024-02-21T06:42:41;99098.16;;;4.50;80.58
85524;BME280;75932;48.616;9.270;2024-02-21T06:45:07;99052.16;;;4.87;77.67
85524;BME280;75932;48.616;9.270;2024-02-21T06:47:32;99111.13;;;6.18;74.68
85524;BME280;75932;48.616;9.270;2024-02-21T06:49:57;99115.78;;;6.98;71.74
85524;BME280;75932;48.616;9.270;2024-02-21T06:52:23;99109.66;;;7.53;68.73
85524;BME280;75932;48.616;9.270;2024-02-21T06:54:49;99112.06;;;6.93;71.75
85524;BME280;75932;48.616;9.270;2024-02-21T06:57:15;99111.00;;;7.64;68.71
85524;BME280;75932;48.616;9.270;2024-02-21T06:59:41;99099.00;;;8.16;67.26
85524;BME280;75932;48.616;9.270;2024-02-21T07:02:06;99092.41;;;9.06;63.18
85524;BME280;75932;48.616;9.270;2024-02-21T07:04:32;99088.69;;;9.23;63.44
85524;BME280;75932;48.616;9.270;2024-02-21T07:06:58;99091.59;;;8.46;64.73
85524;BME280;75932;48.616;9.270;2024-02-21T07:09:23;99104.31;;;8.38;66.29
85524;BME280;75932;48.616;9.270;2024-02-21T07:11:48;99089.44;;;8.52;65.42
85524;BME280;75932;48.616;9.270;2024-02-21T07:14:14;99067.25;;;8.05;65.34
85524;BME280;75932;48.616;9.270;2024-02-21T07:16:40;99101.06;;;8.28;65.77
85524;BME280;75932;48.616;9.270;2024-02-21T07:19:05;99092.50;;;8.59;64.23
85524;BME280;75932;48.616;9.270;2024-02-21T07:21:31;99091.50;;;8.16;64.37
85524;BME280;75932;48.616;9.270;2024-02-21T07:23:56;99087.81;;;8.51;64.26
85524;BME280;75932;48.616;9.270;2024-02-21T07:26:22;99088.41;;;8.65;64.46
85524;BME280;75932;48.616;9.270;2024-02-21T07:28:47;99085.34;;;8.58;64.28
85524;BME280;75932;48.616;9.270;2024-02-21T07:31:13;99079.28;;;8.94;63.70
85524;BME280;75932;48.616;9.270;2024-02-21T07:33:38;99080.84;;;9.67;61.54
85524;BME280;75932;48.616;9.270;2024-02-21T07:36:10;99067.78;;;10.26;59.71
85524;BME280;75932;48.616;9.270;2024-02-21T07:38:36;99076.31;;;10.91;57.30
85524;BME280;75932;48.616;9.270;2024-02-21T07:41:01;99077.97;;;11.32;56.68
85524;BME280;75932;48.616;9.270;2024-02-21T07:43:27;99072.88;;;11.62;55.13
85524;BME280;75932;48.616;9.270;2024-02-21T07:45:53;99068.34;;;11.98;52.92
85524;BME280;75932;48.616;9.270;2024-02-21T07:48:18;99067.72;;;11.49;55.04
85524;BME280;75932;48.616;9.270;2024-02-21T07:50:44;99068.78;;;10.91;56.88
85524;BME280;75932;48.616;9.270;2024-02-21T07:53:12;99059.06;;;10.60;56.05
85524;BME280;75932;48.616;9.270;2024-02-21T07:55:37;99048.94;;;10.31;57.68
85524;BME280;75932;48.616;9.270;2024-02-21T07:58:02;99038.72;;;9.77;59.63
85524;BME280;75932;48.616;9.270;2024-02-21T08:00:28;99036.19;;;9.51;59.37
85524;BME280;75932;48.616;9.270;2024-02-21T08:02:53;99044.97;;;9.53;59.64
85524;BME280;75932;48.616;9.270;2024-02-21T08:05:18;99031.53;;;9.76;59.81
85524;BME280;75932;48.616;9.270;2024-02-21T08:07:44;99027.44;;;10.07;60.05
85524;BME280;75932;48.616;9.270;2024-02-21T08:10:09;99020.31;;;10.43;57.87
85524;BME280;75932;48.616;9.270;2024-02-21T08:12:35;99019.38;;;10.39;58.39
85524;BME280;75932;48.616;9.270;2024-02-21T08:15:01;99018.38;;;9.98;59.06
85524;BME280;75932;48.616;9.270;2024-02-21T08:17:26;99014.84;;;9.76;60.17
85524;BME280;75932;48.616;9.270;2024-02-21T08:19:51;99015.56;;;9.86;59.95
85524;BME280;75932;48.616;9.270;2024-02-21T08:22:17;99012.91;;;9.89;59.32
85524;BME280;75932;48.616;9.270;2024-02-21T08:24:42;99001.28;;;9.63;60.90
85524;BME280;75932;48.616;9.270;2024-02-21T08:27:07;99003.22;;;9.29;61.32
85524;BME280;75932;48.616;9.270;2024-02-21T08:29:35;98971.03;;;8.94;62.05
85524;BME280;75932;48.616;9.270;2024-02-21T08:32:00;98998.16;;;9.31;62.07
85524;BME280;75932;48.616;9.270;2024-02-21T08:34:25;99005.94;;;9.37;61.22
85524;BME280;75932;48.616;9.270;2024-02-21T08:36:51;98996.53;;;9.63;59.91
85524;BME280;75932;48.616;9.270;2024-02-21T08:39:16;98999.13;;;9.80;59.64
85524;BME280;75932;48.616;9.270;2024-02-21T08:41:45;98992.66;;;9.89;59.15
85524;BME280;75932;48.616;9.270;2024-02-21T08:44:10;99002.41;;;9.95;59.06
85524;BME280;75932;48.616;9.270;2024-02-21T08:46:35;98908.34;;;9.27;60.35
85524;BME280;75932;48.616;9.270;2024-02-21T08:49:03;98991.16;;;9.58;60.09
85524;BME280;75932;48.616;9.270;2024-02-21T08:51:28;98985.38;;;9.51;60.76
85524;BME280;75932;48.616;9.270;2024-02-21T08:53:54;98986.13;;;9.72;59.60
85524;BME280;75932;48.616;9.270;2024-02-21T08:56:20;98989.28;;;9.71;60.53
85524;BME280;75932;48.616;9.270;2024-02-21T08:58:45;98986.53;;;9.50;60.18
85524;BME280;75932;48.616;9.270;2024-02-21T09:01:10;98986.81;;;9.36;61.39
85524;BME280;75932;48.616;9.270;2024-02-21T09:03:36;98977.22;;;9.33;61.23
85524;BME280;75932;48.616;9.270;2024-02-21T09:06:02;98968.16;;;9.24;62.76
85524;BME280;75932;48.616;9.270;2024-02-21T09:08:28;98978.09;;;9.25;63.79
85524;BME280;75932;48.616;9.270;2024-02-21T09:10:53;98968.97;;;9.25;63.02
85524;BME280;75932;48.616;9.270;2024-02-21T09:13:21;98967.72;;;9.34;63.85
85524;BME280;75932;48.616;9.270;2024-02-21T09:15:47;98969.88;;;9.50;62.20
85524;BME280;75932;48.616;9.270;2024-02-21T09:18:12;98959.66;;;9.42;62.43
85524;BME280;75932;48.616;9.270;2024-02-21T09:20:38;98959.31;;;9.43;62.31
85524;BME280;75932;48.616;9.270;2024-02-21T09:23:03;98947.75;;;9.53;61.99
85524;BME280;75932;48.616;9.270;2024-02-21T09:25:28;98946.16;;;9.52;61.43
85524;BME280;75932;48.616;9.270;2024-02-21T09:27:54;98955.88;;;9.58;61.60
85524;BME280;75932;48.616;9.270;2024-02-21T09:30:20;98929.94;;;9.54;61.63
85524;BME280;75932;48.616;9.270;2024-02-21T09:32:45;98942.66;;;9.55;60.61
85524;BME280;75932;48.616;9.270;2024-02-21T09:35:10;98939.66;;;9.48;60.05
85524;BME280;75932;48.616;9.270;2024-02-21T09:37:38;98933.50;;;9.43;62.54
85524;BME280;75932;48.616;9.270;2024-02-21T09:40:03;98928.09;;;9.58;62.13
85524;BME280;75932;48.616;9.270;2024-02-21T09:42:39;98926.69;;;9.52;60.83
85524;BME280;75932;48.616;9.270;2024-02-21T09:45:08;98918.69;;;9.51;59.27
85524;BME280;75932;48.616;9.270;2024-02-21T09:47:49;98924.81;;;9.44;61.24
85524;BME280;75932;48.616;9.270;2024-02-21T09:50:16;98923.84;;;9.73;60.04
85524;BME280;75932;48.616;9.270;2024-02-21T09:52:43;98920.28;;;9.97;60.62
85524;BME280;75932;48.616;9.270;2024-02-21T09:55:09;98914.13;;;10.29;58.76
85524;BME280;75932;48.616;9.270;2024-02-21T09:57:38;98909.50;;;10.08;58.51
85524;BME280;75932;48.616;9.270;2024-02-21T10:00:05;98906.28;;;10.31;58.94
85524;BME280;75932;48.616;9.270;2024-02-21T10:02:33;98916.00;;;10.37;59.43
85524;BME280;75932;48.616;9.270;2024-02-21T10:04:58;98908.69;;;10.32;57.65
85524;BME280;75932;48.616;9.270;2024-02-21T10:07:24;98903.09;;;10.57;56.82
85524;BME280;75932;48.616;9.270;2024-02-21T10:10:00;98875.16;;;10.53;57.83
85524;BME280;75932;48.616;9.270;2024-02-21T10:12:26;98900.44;;;11.01;55.68
85524;BME280;75932;48.616;9.270;2024-02-21T10:15:02;98895.25;;;10.87;55.52
85524;BME280;75932;48.616;9.270;2024-02-21T10:17:28;98889.63;;;10.99;55.99
85524;BME280;75932;48.616;9.270;2024-02-21T10:19:53;98879.69;;;11.14;55.50
85524;BME280;75932;48.616;9.270;2024-02-21T10:22:19;98881.06;;;10.92;55.91
85524;BME280;75932;48.616;9.270;2024-02-21T10:24:46;98879.56;;;10.95;55.00
85524;BME280;75932;48.616;9.270;2024-02-21T10:27:11;98882.34;;;10.95;55.13
85524;BME280;75932;48.616;9.270;2024-02-21T10:29:37;98871.75;;;11.00;55.30
85524;BME280;75932;48.616;9.270;2024-02-21T10:32:11;98866.00;;;11.09;55.48
85524;BME280;75932;48.616;9.270;2024-02-21T10:34:37;98864.88;;;11.26;53.89
85524;BME280;75932;48.616;9.270;2024-02-21T10:37:04;98853.38;;;10.83;53.79
85524;BME280;75932;48.616;9.270;2024-02-21T10:39:32;98846.94;;;10.95;53.45
85524;BME280;75932;48.616;9.270;2024-02-21T10:42:00;98838.00;;;10.74;54.41
85524;BME280;75932;48.616;9.270;2024-02-21T10:44:28;98838.16;;;10.65;54.32
85524;BME280;75932;48.616;9.270;2024-02-21T10:46:55;98842.00;;;10.89;54.76
85524;BME280;75932;48.616;9.270;2024-02-21T10:49:25;98805.69;;;10.69;54.10
85524;BME280;75932;48.616;9.270;2024-02-21T10:51:55;98830.31;;;10.83;53.48
85524;BME280;75932;48.616;9.270;2024-02-21T10:54:39;98834.47;;;11.05;55.32
85524;BME280;75932;48.616;9.270;2024-02-21T10:57:06;98826.72;;;11.42;55.58
85524;BME280;75932;48.616;9.270;2024-02-21T10:59:32;98819.63;;;11.61;52.62
85524;BME280;75932;48.616;9.270;2024-02-21T11:01:57;98807.09;;;11.87;52.57
85524;BME280;75932;48.616;9.270;2024-02-21T11:04:23;98799.38;;;11.80;52.13
85524;BME280;75932;48.616;9.270;2024-02-21T11:06:49;98785.09;;;11.65;51.97
85524;BME280;75932;48.616;9.270;2024-02-21T11:09:15;98794.50;;;11.77;53.16
85524;BME280;75932;48.616;9.270;2024-02-21T11:11:43;98777.69;;;11.73;52.79
85524;BME280;75932;48.616;9.270;2024-02-21T11:14:18;98775.06;;;11.96;51.84
85524;BME280;75932;48.616;9.270;2024-02-21T11:16:47;98774.41;;;12.03;51.92
85524;BME280;75932;48.616;9.270;2024-02-21T11:19:25;98772.25;;;12.12;51.23
85524;BME280;75932;48.616;9.270;2024-02-21T11:21:51;98761.41;;;11.91;51.54
85524;BME280;75932;48.616;9.270;2024-02-21T11:24:30;98754.03;;;11.83;52.05
85524;BME280;75932;48.616;9.270;2024-02-21T11:27:15;98744.94;;;11.86;51.17
85524;BME280;75932;48.616;9.270;2024-02-21T11:29:48;98752.25;;;11.91;52.51
85524;BME280;75932;48.616;9.270;2024-02-21T11:32:18;98730.91;;;12.18;51.48
85524;BME280;75932;48.616;9.270;2024-02-21T11:35:03;98729.31;;;12.36;50.87
85524;BME280;75932;48.616;9.270;2024-02-21T11:37:31;98718.78;;;12.49;50.57
85524;BME280;75932;48.616;9.270;2024-02-21T11:39:58;98715.25;;;12.52;49.31
85524;BME280;75932;48.616;9.270;2024-02-21T11:42:27;98713.31;;;12.76;49.86
85524;BME280;75932;48.616;9.270;2024-02-21T11:44:54;98694.47;;;12.50;49.37
85524;BME280;75932;48.616;9.270;2024-02-21T11:47:23;98659.56;;;12.17;48.96
85524;BME280;75932;48.616;9.270;2024-02-21T11:49:49;98685.09;;;12.38;50.48
85524;BME280;75932;48.616;9.270;2024-02-21T11:52:18;98689.88;;;12.38;48.71
85524;BME280;75932;48.616;9.270;2024-02-21T11:54:45;98682.63;;;12.56;50.37
85524;BME280;75932;48.616;9.270;2024-02-21T11:57:11;98669.38;;;12.50;48.62
85524;BME280;75932;48.616;9.270;2024-02-21T11:59:36;98665.97;;;12.60;50.45
85524;BME280;75932;48.616;9.270;2024-02-21T12:02:03;98684.84;;;12.90;50.21
85524;BME280;75932;48.616;9.270;2024-02-21T12:04:28;98637.63;;;12.58;50.11
85524;BME280;75932;48.616;9.270;2024-02-21T12:06:54;98666.47;;;12.88;49.74
85524;BME280;75932;48.616;9.270;2024-02-21T12:09:19;98639.66;;;12.84;50.47
85524;BME280;75932;48.616;9.270;2024-02-21T12:11:45;98649.53;;;13.01;48.87
85524;BME280;75932;48.616;9.270;2024-02-21T12:14:18;98659.38;;;12.95;49.00
85524;BME280;75932;48.616;9.270;2024-02-21T12:16:46;98645.50;;;12.98;50.43
85524;BME280;75932;48.616;9.270;2024-02-21T12:19:13;98641.63;;;13.06;49.59
85524;BME280;75932;48.616;9.270;2024-02-21T12:21:39;98593.50;;;12.90;49.34
85524;BME280;75932;48.616;9.270;2024-02-21T12:24:14;98598.13;;;13.05;49.56
85524;BME280;75932;48.616;9.270;2024-02-21T12:26:40;98634.47;;;13.32;48.97
85524;BME280;75932;48.616;9.270;2024-02-21T12:29:06;98628.97;;;13.36;48.43
85524;BME280;75932;48.616;9.270;2024-02-21T12:31:35;98614.56;;;13.34;48.76
85524;BME280;75932;48.616;9.270;2024-02-21T12:34:00;98623.41;;;13.39;47.99
85524;BME280;75932;48.616;9.270;2024-02-21T12:36:25;98607.75;;;13.35;47.12
85524;BME280;75932;48.616;9.270;2024-02-21T12:38:51;98610.13;;;13.33;46.09
85524;BME280;75932;48.616;9.270;2024-02-21T12:41:16;98604.63;;;13.40;47.61
85524;BME280;75932;48.616;9.270;2024-02-21T12:43:42;98599.25;;;13.27;47.05
85524;BME280;75932;48.616;9.270;2024-02-21T12:46:07;98576.25;;;13.11;45.91
85524;BME280;75932;48.616;9.270;2024-02-21T12:48:33;98589.25;;;13.00;46.40
85524;BME280;75932;48.616;9.270;2024-02-21T12:50:59;98513.13;;;12.53;46.34
85524;BME280;75932;48.616;9.270;2024-02-21T12:53:24;98569.09;;;13.14;45.36
85524;BME280;75932;48.616;9.270;2024-02-21T12:55:50;98566.00;;;13.19;45.72
85524;BME280;75932;48.616;9.270;2024-02-21T12:58:16;98542.50;;;12.97;43.84
85524;BME280;75932;48.616;9.270;2024-02-21T13:00:42;98554.91;;;13.26;44.43
85524;BME280;75932;48.616;9.270;2024-02-21T13:03:07;98551.63;;;13.20;45.17